Time;durP1;ratioP1;P1;durP2;ratioP2;P2;SDS_P1;SDS_P2;PMS_P1;PMS_P2;Temp;Humidity;BMP_temperature;BMP_pressure;BME280_temperature;BME280_humidity;BME280_pressure;Samples;Min_cycle;Max_cycle;Signal;HPM_P1;HPM_P2
2023/01/12 00:00:33;;;;;;;5.45;1.80;;;;;;;;;;5062032;28;20428;-83
2023/01/12 00:02:59;;;;;;;4.72;1.33;;;;;;;;;;5065385;28;20394;-83
2023/01/12 00:05:25;;;;;;;6.45;1.45;;;;;;;;;;5072144;28;20383;-83
2023/01/12 00:07:51;;;;;;;4.97;1.60;;;;;;;;;;5072086;28;20792;-83
2023/01/12 00:10:17;;;;;;;4.80;1.70;;;;;;;;;;5071982;28;20422;-83
2023/01/12 00:12:43;;;;;;;5.88;2.00;;;;;;;;;;5058396;28;20377;-83
2023/01/12 00:15:09;;;;;;;5.50;1.92;;;;;;;;;;5070778;28;20379;-84
2023/01/12 00:17:35;;;;;;;4.72;2.00;;;;;;;;;;5062494;28;20854;-84
2023/01/12 00:20:03;;;;;;;7.65;1.70;;;;;;;;;;5053280;28;20393;-84
2023/01/12 00:22:28;;;;;;;4.93;1.60;;;;;;;;;;5057676;28;20879;-83
2023/01/12 00:24:54;;;;;;;4.80;1.65;;;;;;;;;;5067150;28;20383;-83
2023/01/12 00:27:21;;;;;;;5.70;1.70;;;;;;;;;;5057240;28;20869;-83
2023/01/12 00:29:47;;;;;;;4.18;1.95;;;;;;;;;;5071530;28;20415;-83
2023/01/12 00:32:14;;;;;;;4.07;1.80;;;;;;;;;;5071780;28;20383;-84
2023/01/12 00:34:40;;;;;;;4.93;1.70;;;;;;;;;;5071749;28;20383;-84
2023/01/12 00:37:07;;;;;;;3.53;1.80;;;;;;;;;;5071789;28;20403;-84
2023/01/12 00:39:35;;;;;;;4.35;1.90;;;;;;;;;;5071366;28;20387;-83
2023/01/12 00:47:31;;;;;;;5.13;2.30;;;;;;;;;;5071624;28;20761;-83
2023/01/12 00:49:57;;;;;;;3.90;2.20;;;;;;;;;;5071116;28;20403;-84
2023/01/12 00:52:23;;;;;;;4.38;1.90;;;;;;;;;;5071583;28;20376;-84
2023/01/12 00:54:49;;;;;;;4.72;2.40;;;;;;;;;;5071436;28;20400;-84
2023/01/12 00:57:16;;;;;;;5.10;2.20;;;;;;;;;;5071443;28;20466;-83
2023/01/12 00:59:43;;;;;;;5.47;2.00;;;;;;;;;;5071410;28;20386;-84
2023/01/12 01:02:09;;;;;;;4.40;1.67;;;;;;;;;;5036436;28;20885;-83
2023/01/12 01:04:35;;;;;;;4.03;1.98;;;;;;;;;;5071307;28;20845;-84
2023/01/12 01:07:02;;;;;;;4.35;2.13;;;;;;;;;;5071704;28;20423;-84
2023/01/12 01:09:29;;;;;;;3.30;2.17;;;;;;;;;;5071277;28;20461;-83
2023/01/12 01:11:55;;;;;;;5.93;2.23;;;;;;;;;;5057263;28;20741;-83
2023/01/12 01:14:21;;;;;;;4.32;2.08;;;;;;;;;;5063136;28;20867;-84
2023/01/12 01:16:47;;;;;;;3.45;1.75;;;;;;;;;;5051283;28;20381;-83
2023/01/12 01:19:13;;;;;;;5.20;1.83;;;;;;;;;;5055938;28;20402;-83
2023/01/12 01:21:39;;;;;;;3.77;1.53;;;;;;;;;;5067065;28;20374;-84
2023/01/12 01:24:08;;;;;;;2.90;1.70;;;;;;;;;;5075279;28;20452;-83
2023/01/12 01:26:34;;;;;;;3.38;1.75;;;;;;;;;;5073300;28;20385;-82
2023/01/12 01:29:00;;;;;;;3.53;1.90;;;;;;;;;;5073514;28;20464;-82
2023/01/12 01:31:26;;;;;;;3.97;1.60;;;;;;;;;;5080310;28;20876;-84
2023/01/12 01:33:52;;;;;;;4.32;1.77;;;;;;;;;;5054304;28;20385;-84
2023/01/12 01:36:19;;;;;;;3.10;1.70;;;;;;;;;;5052184;28;20382;-83
2023/01/12 01:38:46;;;;;;;4.97;1.95;;;;;;;;;;5064493;28;20718;-84
2023/01/12 01:41:26;;;;;;;4.88;1.80;;;;;;;;;;5070999;28;20725;-83
2023/01/12 01:44:00;;;;;;;5.30;2.00;;;;;;;;;;5071374;28;20442;-83
2023/01/12 01:46:33;;;;;;;4.57;2.05;;;;;;;;;;5055964;28;20434;-83
2023/01/12 01:49:04;;;;;;;5.78;1.92;;;;;;;;;;5064610;28;20435;-84
2023/01/12 01:51:30;;;;;;;4.38;1.90;;;;;;;;;;5071075;28;20388;-84
2023/01/12 01:53:56;;;;;;;4.23;1.83;;;;;;;;;;5072835;28;20443;-84
2023/01/12 01:56:25;;;;;;;4.07;1.80;;;;;;;;;;5069512;28;20368;-83
2023/01/12 01:58:57;;;;;;;4.40;1.80;;;;;;;;;;5065094;28;20542;-84
2023/01/12 02:01:23;;;;;;;3.88;1.77;;;;;;;;;;5057094;28;20434;-84
2023/01/12 02:03:51;;;;;;;4.53;1.73;;;;;;;;;;5074349;28;20384;-84
2023/01/12 02:06:17;;;;;;;4.10;1.85;;;;;;;;;;5074152;28;20390;-84
2023/01/12 02:08:43;;;;;;;6.82;1.77;;;;;;;;;;5074001;28;20718;-84
2023/01/12 02:16:19;;;;;;;6.33;1.77;;;;;;;;;;5074161;28;20406;-83
2023/01/12 02:16:45;;;;;;;4.13;1.87;;;;;;;;;;5074085;28;21115;-83
2023/01/12 02:19:14;;;;;;;4.97;1.98;;;;;;;;;;5072563;28;20379;-83
2023/01/12 02:22:06;;;;;;;3.67;1.60;;;;;;;;;;5053710;28;20497;-84
2023/01/12 02:24:32;;;;;;;4.18;1.45;;;;;;;;;;5059665;28;20736;-84
2023/01/12 02:26:58;;;;;;;4.38;1.58;;;;;;;;;;5068174;28;20380;-84
2023/01/12 02:29:42;;;;;;;4.15;1.60;;;;;;;;;;5073788;28;20415;-83
2023/01/12 02:32:17;;;;;;;4.10;1.73;;;;;;;;;;5073920;28;20395;-84
2023/01/12 02:34:49;;;;;;;5.55;2.38;;;;;;;;;;5073819;28;20467;-84
2023/01/12 02:37:21;;;;;;;4.93;2.17;;;;;;;;;;5061015;28;20774;-83
2023/01/12 02:39:50;;;;;;;4.80;2.38;;;;;;;;;;5073724;28;20380;-84
2023/01/12 02:42:48;;;;;;;4.50;1.80;;;;;;;;;;5073764;28;20376;-84
2023/01/12 02:45:33;;;;;;;4.53;1.63;;;;;;;;;;5073686;28;20517;-83
2023/01/12 02:48:20;;;;;;;6.15;2.20;;;;;;;;;;5073265;28;21054;-84
2023/01/12 02:50:57;;;;;;;4.80;2.45;;;;;;;;;;5073414;28;20467;-84
2023/01/12 02:53:23;;;;;;;6.65;2.28;;;;;;;;;;5073485;28;20455;-83
2023/01/12 02:55:49;;;;;;;6.57;2.40;;;;;;;;;;5073430;28;20410;-84
2023/01/12 02:58:17;;;;;;;6.70;2.65;;;;;;;;;;5073341;28;20870;-84
2023/01/12 03:00:45;;;;;;;6.43;2.47;;;;;;;;;;5060451;28;20905;-84
2023/01/12 03:03:11;;;;;;;4.40;1.90;;;;;;;;;;5069482;28;20402;-84
2023/01/12 03:05:40;;;;;;;3.10;1.47;;;;;;;;;;5073114;28;20375;-84
2023/01/12 03:08:07;;;;;;;5.45;1.90;;;;;;;;;;5073239;28;20387;-84
2023/01/12 03:10:33;;;;;;;6.22;2.05;;;;;;;;;;5072930;28;20883;-84
2023/01/12 03:13:04;;;;;;;4.80;1.90;;;;;;;;;;5073041;28;20371;-84
2023/01/12 03:15:31;;;;;;;4.63;1.75;;;;;;;;;;5055033;28;20776;-84
2023/01/12 03:17:59;;;;;;;5.18;1.70;;;;;;;;;;5073256;28;20384;-84
2023/01/12 03:20:28;;;;;;;4.40;1.60;;;;;;;;;;5072775;28;20413;-83
2023/01/12 03:22:57;;;;;;;6.03;1.70;;;;;;;;;;5061092;28;20381;-84
2023/01/12 03:25:24;;;;;;;3.63;1.55;;;;;;;;;;5049252;28;20401;-83
2023/01/12 03:27:52;;;;;;;4.45;1.50;;;;;;;;;;5057536;28;20380;-84
2023/01/12 03:30:20;;;;;;;5.20;2.00;;;;;;;;;;5042978;28;20461;-84
2023/01/12 03:32:46;;;;;;;4.18;1.70;;;;;;;;;;5059899;28;20904;-84
2023/01/12 03:35:12;;;;;;;5.80;1.93;;;;;;;;;;5063978;28;20391;-84
2023/01/12 03:38:08;;;;;;;4.80;1.95;;;;;;;;;;5072548;28;20379;-84
2023/01/12 03:40:39;;;;;;;4.90;1.50;;;;;;;;;;5033556;28;20479;-84
2023/01/12 03:43:27;;;;;;;3.58;1.60;;;;;;;;;;5053065;28;20768;-84
2023/01/12 03:45:53;;;;;;;9.35;1.75;;;;;;;;;;5063004;28;20872;-83
2023/01/12 03:48:19;;;;;;;5.50;1.75;;;;;;;;;;5038961;28;20473;-84
2023/01/12 03:50:55;;;;;;;4.82;1.80;;;;;;;;;;5034816;28;20414;-84
2023/01/12 03:53:22;;;;;;;3.60;1.70;;;;;;;;;;5036229;28;20453;-83
2023/01/12 03:55:51;;;;;;;6.20;1.70;;;;;;;;;;5058435;28;21078;-83
2023/01/12 03:58:17;;;;;;;4.67;1.27;;;;;;;;;;5072155;28;20420;-83
2023/01/12 04:00:44;;;;;;;6.93;1.80;;;;;;;;;;5059290;28;20389;-84
2023/01/12 04:03:12;;;;;;;4.55;1.50;;;;;;;;;;5068132;28;20395;-83
2023/01/12 04:05:38;;;;;;;5.43;1.55;;;;;;;;;;5071809;28;20379;-84
2023/01/12 04:08:05;;;;;;;3.67;1.35;;;;;;;;;;5053221;28;20877;-84
2023/01/12 04:10:31;;;;;;;3.80;1.27;;;;;;;;;;5040694;28;20411;-85
2023/01/12 04:12:57;;;;;;;5.07;1.65;;;;;;;;;;5038194;28;20374;-84
2023/01/12 04:15:23;;;;;;;5.57;1.80;;;;;;;;;;5033610;28;20387;-84
2023/01/12 04:17:49;;;;;;;4.82;1.55;;;;;;;;;;5031216;28;20441;-84
2023/01/12 04:20:15;;;;;;;4.35;1.40;;;;;;;;;;5041118;28;20408;-84
2023/01/12 04:22:44;;;;;;;3.97;1.52;;;;;;;;;;5048234;28;20383;-84
2023/01/12 04:25:12;;;;;;;5.13;1.67;;;;;;;;;;5041411;28;20813;-84
2023/01/12 04:27:44;;;;;;;4.18;1.55;;;;;;;;;;5054718;28;20487;-84
2023/01/12 04:30:11;;;;;;;4.13;1.55;;;;;;;;;;5050151;28;20965;-85
2023/01/12 04:32:37;;;;;;;4.97;1.50;;;;;;;;;;5052220;28;20380;-84
2023/01/12 04:35:04;;;;;;;5.40;1.80;;;;;;;;;;5040979;28;20776;-84
2023/01/12 04:37:31;;;;;;;3.83;1.40;;;;;;;;;;5035901;28;20384;-84
2023/01/12 04:39:57;;;;;;;3.00;1.40;;;;;;;;;;5044905;28;20761;-84
2023/01/12 04:45:08;;;;;;;3.65;1.30;;;;;;;;;;5059341;28;20447;-85
2023/01/12 04:47:34;;;;;;;5.15;1.60;;;;;;;;;;5038979;28;20379;-85
2023/01/12 04:50:00;;;;;;;6.43;1.60;;;;;;;;;;5058678;28;21156;-85
2023/01/12 04:52:26;;;;;;;5.10;1.57;;;;;;;;;;5056871;28;20386;-85
2023/01/12 04:54:52;;;;;;;4.65;1.60;;;;;;;;;;5059717;28;20434;-85
2023/01/12 04:57:18;;;;;;;6.03;1.73;;;;;;;;;;5065170;28;20375;-85
2023/01/12 04:59:44;;;;;;;6.80;1.75;;;;;;;;;;5075798;28;20880;-85
2023/01/12 05:02:10;;;;;;;4.10;1.50;;;;;;;;;;5068196;28;20388;-84
2023/01/12 05:04:36;;;;;;;5.15;1.45;;;;;;;;;;5089618;28;20371;-84
2023/01/12 05:07:02;;;;;;;4.13;1.40;;;;;;;;;;5083684;28;20380;-85
2023/01/12 05:12:12;;;;;;;5.07;1.52;;;;;;;;;;5072400;28;20375;-85
2023/01/12 05:14:38;;;;;;;4.85;1.60;;;;;;;;;;5054207;28;20387;-85
2023/01/12 05:17:04;;;;;;;4.30;1.53;;;;;;;;;;5071634;28;20387;-85
2023/01/12 05:19:30;;;;;;;5.20;1.77;;;;;;;;;;5053731;28;20890;-85
2023/01/12 05:21:56;;;;;;;5.10;1.40;;;;;;;;;;5053393;28;20395;-84
2023/01/12 05:24:22;;;;;;;4.80;1.77;;;;;;;;;;5071502;28;20410;-85
2023/01/12 05:26:48;;;;;;;5.10;1.85;;;;;;;;;;5065004;28;20837;-85
2023/01/12 05:29:15;;;;;;;4.78;1.80;;;;;;;;;;5038303;28;20473;-85
2023/01/12 05:31:41;;;;;;;5.85;1.80;;;;;;;;;;5060244;28;20932;-84
2023/01/12 05:34:07;;;;;;;7.63;1.60;;;;;;;;;;5059363;28;20377;-85
2023/01/12 05:36:33;;;;;;;3.95;1.42;;;;;;;;;;5061939;28;20380;-85
2023/01/12 05:38:59;;;;;;;6.32;2.00;;;;;;;;;;5068687;28;20410;-85
2023/01/12 05:41:25;;;;;;;5.00;1.63;;;;;;;;;;5064549;28;20449;-84
2023/01/12 05:43:51;;;;;;;6.22;1.90;;;;;;;;;;5074844;28;20868;-85
2023/01/12 05:46:26;;;;;;;3.70;1.50;;;;;;;;;;5073083;28;20386;-86
2023/01/12 05:48:53;;;;;;;6.35;1.48;;;;;;;;;;5035137;28;20435;-85
2023/01/12 05:51:20;;;;;;;5.10;1.70;;;;;;;;;;5073115;28;20749;-85
2023/01/12 05:53:46;;;;;;;4.80;1.80;;;;;;;;;;5074732;28;20384;-84
2023/01/12 05:56:12;;;;;;;6.25;1.70;;;;;;;;;;5074660;28;20376;-85
2023/01/12 05:58:38;;;;;;;6.22;1.40;;;;;;;;;;5074575;28;20372;-86
2023/01/12 06:01:07;;;;;;;4.15;1.30;;;;;;;;;;5057270;28;20379;-86
2023/01/12 06:03:34;;;;;;;5.22;1.63;;;;;;;;;;5070138;28;20483;-85
2023/01/12 06:06:00;;;;;;;5.78;1.65;;;;;;;;;;5067638;28;20736;-85
2023/01/12 06:08:26;;;;;;;4.15;1.50;;;;;;;;;;5074279;28;20784;-83
2023/01/12 06:10:52;;;;;;;7.68;1.80;;;;;;;;;;5073780;28;20404;-85
2023/01/12 06:16:04;;;;;;;5.28;1.50;;;;;;;;;;5074245;28;20471;-86
2023/01/12 06:18:33;;;;;;;6.07;1.40;;;;;;;;;;5074293;28;20398;-85
2023/01/12 06:20:59;;;;;;;3.53;1.40;;;;;;;;;;5074146;28;20412;-85
2023/01/12 06:23:25;;;;;;;7.32;1.58;;;;;;;;;;5074217;28;20388;-86
2023/01/12 06:25:51;;;;;;;4.82;1.40;;;;;;;;;;5073905;28;20411;-86
2023/01/12 06:28:17;;;;;;;4.25;1.42;;;;;;;;;;5073839;28;20777;-86
2023/01/12 06:30:43;;;;;;;3.97;1.42;;;;;;;;;;5074131;28;20403;-86
2023/01/12 06:33:09;;;;;;;4.50;1.40;;;;;;;;;;5073988;28;20372;-85
2023/01/12 06:35:35;;;;;;;4.80;1.30;;;;;;;;;;5072632;28;20415;-86
2023/01/12 06:38:01;;;;;;;5.97;1.57;;;;;;;;;;5052883;28;20823;-85
2023/01/12 06:40:27;;;;;;;4.22;1.30;;;;;;;;;;5055142;28;20465;-86
2023/01/12 06:42:53;;;;;;;4.95;1.42;;;;;;;;;;5059485;28;20387;-84
2023/01/12 06:45:19;;;;;;;5.07;1.23;;;;;;;;;;5038456;28;20397;-85
2023/01/12 06:47:50;;;;;;;3.75;1.45;;;;;;;;;;5054897;28;20450;-86
2023/01/12 06:50:17;;;;;;;4.82;1.60;;;;;;;;;;5048076;28;20461;-86
2023/01/12 06:52:43;;;;;;;4.20;1.50;;;;;;;;;;5069463;28;20372;-86
2023/01/12 06:55:09;;;;;;;5.43;1.67;;;;;;;;;;5069723;28;20935;-85
2023/01/12 06:57:35;;;;;;;7.97;1.83;;;;;;;;;;5067408;28;20837;-90
2023/01/12 07:00:01;;;;;;;6.60;1.52;;;;;;;;;;5072698;28;20433;-91
2023/01/12 07:02:27;;;;;;;4.28;1.45;;;;;;;;;;5053009;28;20385;-85
2023/01/12 07:04:53;;;;;;;4.70;1.27;;;;;;;;;;5071352;28;20391;-84
2023/01/12 07:07:19;;;;;;;5.47;1.40;;;;;;;;;;5073256;28;20380;-84
2023/01/12 07:09:45;;;;;;;4.70;1.50;;;;;;;;;;5073073;28;20897;-85
2023/01/12 07:12:10;;;;;;;4.47;1.48;;;;;;;;;;5073184;28;20386;-84
2023/01/12 07:14:36;;;;;;;4.33;1.50;;;;;;;;;;5072651;28;20459;-84
2023/01/12 07:17:02;;;;;;;4.10;1.48;;;;;;;;;;5071649;28;20864;-86
2023/01/12 07:19:28;;;;;;;4.35;1.58;;;;;;;;;;5039852;28;20386;-84
2023/01/12 07:21:54;;;;;;;3.80;1.50;;;;;;;;;;5053150;28;20388;-85
2023/01/12 07:24:20;;;;;;;4.53;1.20;;;;;;;;;;5060626;28;20386;-85
2023/01/12 07:26:50;;;;;;;3.60;1.52;;;;;;;;;;5067190;28;20381;-85
2023/01/12 07:29:16;;;;;;;4.15;1.65;;;;;;;;;;5040693;28;20439;-85
2023/01/12 07:31:43;;;;;;;4.60;2.00;;;;;;;;;;5039934;28;20398;-86
2023/01/12 07:34:09;;;;;;;5.70;1.63;;;;;;;;;;5052129;28;20383;-86
2023/01/12 07:36:35;;;;;;;4.03;1.38;;;;;;;;;;5072616;28;20387;-87
2023/01/12 07:39:01;;;;;;;5.75;1.55;;;;;;;;;;5072544;28;20380;-87
2023/01/12 07:44:11;;;;;;;5.15;1.40;;;;;;;;;;5057240;28;20433;-87
2023/01/12 07:46:38;;;;;;;4.90;1.50;;;;;;;;;;5060943;28;20389;-87
2023/01/12 07:49:04;;;;;;;6.80;1.75;;;;;;;;;;5052068;28;20391;-85
2023/01/12 07:51:30;;;;;;;5.18;1.60;;;;;;;;;;5057532;28;20400;-85
2023/01/12 07:53:56;;;;;;;4.28;1.27;;;;;;;;;;5053167;28;20461;-85
2023/01/12 07:56:22;;;;;;;6.55;1.50;;;;;;;;;;5049218;28;20466;-85
2023/01/12 07:58:49;;;;;;;5.68;1.30;;;;;;;;;;5033104;28;20474;-85
2023/01/12 08:01:15;;;;;;;5.53;1.55;;;;;;;;;;5037864;28;20384;-85
2023/01/12 08:03:41;;;;;;;5.93;1.60;;;;;;;;;;5047715;28;20867;-85
2023/01/12 08:06:07;;;;;;;4.22;1.45;;;;;;;;;;5047454;28;20383;-85
2023/01/12 08:08:34;;;;;;;5.75;1.58;;;;;;;;;;5052846;28;20439;-85
2023/01/12 08:11:01;;;;;;;4.57;1.40;;;;;;;;;;5053769;28;20502;-86
2023/01/12 08:13:27;;;;;;;5.20;1.40;;;;;;;;;;5038354;28;20394;-86
2023/01/12 08:15:53;;;;;;;3.65;1.27;;;;;;;;;;5038143;28;20387;-86
2023/01/12 08:18:19;;;;;;;4.43;1.30;;;;;;;;;;5036172;28;20383;-85
2023/01/12 08:20:45;;;;;;;5.32;1.40;;;;;;;;;;5033326;28;20383;-86
2023/01/12 08:23:19;;;;;;;3.72;1.48;;;;;;;;;;5050909;28;20398;-85
2023/01/12 08:25:46;;;;;;;4.05;1.48;;;;;;;;;;5038952;28;20453;-84
2023/01/12 08:28:15;;;;;;;3.78;1.40;;;;;;;;;;5061937;28;20446;-84
2023/01/12 08:30:41;;;;;;;5.55;1.38;;;;;;;;;;5069179;28;20404;-84
2023/01/12 08:33:07;;;;;;;5.55;1.58;;;;;;;;;;5068772;28;20410;-85
2023/01/12 08:35:33;;;;;;;7.03;1.90;;;;;;;;;;5033186;28;20899;-85
2023/01/12 08:38:00;;;;;;;5.45;1.48;;;;;;;;;;5081691;28;20466;-84
2023/01/12 08:41:31;;;;;;;5.55;1.63;;;;;;;;;;5087099;28;20379;-84
2023/01/12 08:43:11;;;;;;;4.97;1.80;;;;;;;;;;5082506;28;20436;-85
2023/01/12 08:45:37;;;;;;;5.18;1.60;;;;;;;;;;5058481;28;20482;-85
2023/01/12 08:48:04;;;;;;;4.35;1.70;;;;;;;;;;5021452;28;20383;-83
2023/01/12 08:50:30;;;;;;;4.70;1.80;;;;;;;;;;5043148;28;20406;-84
2023/01/12 08:52:56;;;;;;;3.92;1.70;;;;;;;;;;5055538;28;20395;-84
2023/01/12 08:55:22;;;;;;;6.35;1.92;;;;;;;;;;5050146;28;20980;-83
2023/01/12 08:57:48;;;;;;;6.60;1.90;;;;;;;;;;5055474;28;20469;-84
2023/01/12 09:00:14;;;;;;;4.43;1.67;;;;;;;;;;5051202;28;20379;-84
2023/01/12 09:02:40;;;;;;;5.57;1.70;;;;;;;;;;5043626;28;20384;-84
2023/01/12 09:05:06;;;;;;;4.67;1.30;;;;;;;;;;5075641;28;21027;-85
2023/01/12 09:07:32;;;;;;;4.45;1.67;;;;;;;;;;5038705;28;20464;-88
2023/01/12 09:09:58;;;;;;;4.75;1.67;;;;;;;;;;5073744;28;20403;-88
2023/01/12 09:12:26;;;;;;;5.90;1.70;;;;;;;;;;5062082;28;20867;-88
2023/01/12 09:14:52;;;;;;;5.78;1.50;;;;;;;;;;5074309;28;20415;-86
2023/01/12 09:17:21;;;;;;;5.13;1.52;;;;;;;;;;5047849;28;20880;-84
2023/01/12 09:19:49;;;;;;;5.75;1.70;;;;;;;;;;5074782;28;20384;-84
2023/01/12 09:22:15;;;;;;;3.90;1.20;;;;;;;;;;5058897;28;20379;-84
2023/01/12 09:24:41;;;;;;;4.30;1.88;;;;;;;;;;5074664;28;20383;-83
2023/01/12 09:27:07;;;;;;;4.20;1.50;;;;;;;;;;5074919;28;20737;-84
2023/01/12 09:29:33;;;;;;;5.85;1.48;;;;;;;;;;5075144;28;20453;-85
2023/01/12 09:31:59;;;;;;;5.30;1.30;;;;;;;;;;5075378;28;20462;-85
2023/01/12 09:34:25;;;;;;;5.13;1.55;;;;;;;;;;5075112;28;20376;-84
2023/01/12 09:36:52;;;;;;;4.10;1.30;;;;;;;;;;5070112;28;20448;-83
2023/01/12 09:39:18;;;;;;;3.17;1.40;;;;;;;;;;5058284;28;20379;-84
2023/01/12 09:47:34;;;;;;;5.05;1.35;;;;;;;;;;5074912;28;20411;-84
2023/01/12 09:50:20;;;;;;;5.35;1.20;;;;;;;;;;5068306;28;20461;-85
2023/01/12 09:52:49;;;;;;;3.92;1.30;;;;;;;;;;5056476;28;20456;-86
2023/01/12 09:55:17;;;;;;;4.45;1.55;;;;;;;;;;5067457;28;20422;-85
2023/01/12 09:57:58;;;;;;;5.00;1.30;;;;;;;;;;5069799;28;20424;-85
2023/01/12 10:00:27;;;;;;;4.15;1.38;;;;;;;;;;5067016;28;20447;-85
2023/01/12 10:03:03;;;;;;;3.97;1.10;;;;;;;;;;5065914;28;20499;-84
2023/01/12 10:05:41;;;;;;;3.55;1.50;;;;;;;;;;5074604;28;20443;-85
2023/01/12 10:08:15;;;;;;;4.20;1.00;;;;;;;;;;5074362;28;20439;-84
2023/01/12 10:10:44;;;;;;;6.90;1.38;;;;;;;;;;5074440;28;20456;-84
2023/01/12 10:13:12;;;;;;;4.80;1.27;;;;;;;;;;5074288;28;20428;-84
2023/01/12 10:15:48;;;;;;;4.05;1.40;;;;;;;;;;5073705;28;20421;-85
2023/01/12 10:18:20;;;;;;;5.13;1.45;;;;;;;;;;5074333;28;20420;-84
2023/01/12 10:20:46;;;;;;;5.20;1.40;;;;;;;;;;5074238;28;20540;-85
2023/01/12 10:23:15;;;;;;;3.40;1.17;;;;;;;;;;5048464;28;20468;-84
2023/01/12 10:25:47;;;;;;;3.35;1.20;;;;;;;;;;5069806;28;20419;-84
2023/01/12 10:28:15;;;;;;;3.75;1.30;;;;;;;;;;5073581;28;20992;-85
2023/01/12 10:30:42;;;;;;;3.78;1.50;;;;;;;;;;5072227;28;20415;-84
2023/01/12 10:33:12;;;;;;;5.07;1.35;;;;;;;;;;5072026;28;20387;-85
2023/01/12 10:35:50;;;;;;;3.85;1.25;;;;;;;;;;5071877;28;20387;-84
2023/01/12 10:38:24;;;;;;;4.00;1.27;;;;;;;;;;5071911;28;20474;-84
2023/01/12 10:41:09;;;;;;;3.58;1.10;;;;;;;;;;5073079;28;20383;-84
2023/01/12 10:43:35;;;;;;;4.88;1.20;;;;;;;;;;5044359;28;20437;-84
2023/01/12 10:46:03;;;;;;;3.53;1.10;;;;;;;;;;5070174;28;20387;-84
2023/01/12 10:48:29;;;;;;;3.90;1.45;;;;;;;;;;5073674;28;20383;-85
2023/01/12 10:50:57;;;;;;;4.63;1.70;;;;;;;;;;5073403;28;20411;-85
2023/01/12 10:53:27;;;;;;;3.67;1.30;;;;;;;;;;5073745;28;20897;-85
2023/01/12 10:55:55;;;;;;;4.15;1.23;;;;;;;;;;5073706;28;20468;-84
2023/01/12 10:58:25;;;;;;;4.97;1.20;;;;;;;;;;5055533;28;20420;-84
2023/01/12 11:00:52;;;;;;;3.57;0.97;;;;;;;;;;5058324;28;20878;-85
2023/01/12 11:03:44;;;;;;;6.53;1.30;;;;;;;;;;5071643;28;20395;-84
2023/01/12 11:06:22;;;;;;;3.47;1.08;;;;;;;;;;5068839;28;20539;-84
2023/01/12 11:08:48;;;;;;;2.85;1.20;;;;;;;;;;5073574;28;20474;-84
2023/01/12 11:11:26;;;;;;;4.55;1.30;;;;;;;;;;5073040;28;20474;-85
2023/01/12 11:13:53;;;;;;;5.30;1.15;;;;;;;;;;5073090;28;20402;-85
2023/01/12 11:16:23;;;;;;;3.10;1.27;;;;;;;;;;5073209;28;20404;-84
2023/01/12 11:19:01;;;;;;;5.90;2.40;;;;;;;;;;5073118;28;20858;-85
2023/01/12 11:21:30;;;;;;;3.58;1.30;;;;;;;;;;5055276;28;20881;-85
2023/01/12 11:24:02;;;;;;;3.25;1.38;;;;;;;;;;5054912;28;20387;-85
2023/01/12 11:26:32;;;;;;;3.33;1.50;;;;;;;;;;5072840;28;20443;-85
2023/01/12 11:29:06;;;;;;;7.28;1.50;;;;;;;;;;5072570;28;20404;-85
2023/01/12 11:31:37;;;;;;;3.63;1.20;;;;;;;;;;5034372;28;20463;-84
2023/01/12 11:34:15;;;;;;;4.65;1.50;;;;;;;;;;5069075;28;20379;-84
2023/01/12 11:36:43;;;;;;;3.97;1.42;;;;;;;;;;5072841;28;20474;-85
2023/01/12 11:39:22;;;;;;;3.22;1.13;;;;;;;;;;5057031;28;20434;-85
2023/01/12 11:44:55;;;;;;;2.40;1.17;;;;;;;;;;5055127;28;20409;-85
2023/01/12 11:47:26;;;;;;;3.15;1.10;;;;;;;;;;4992533;28;20436;-85
2023/01/12 11:49:59;;;;;;;4.70;0.93;;;;;;;;;;5049251;28;20490;-84
2023/01/12 11:52:26;;;;;;;2.85;1.20;;;;;;;;;;5048330;28;20460;-83
2023/01/12 11:54:52;;;;;;;1.80;0.95;;;;;;;;;;5046128;28;20772;-84
2023/01/12 11:57:22;;;;;;;3.75;1.40;;;;;;;;;;5064183;28;20384;-84
2023/01/12 12:00:00;;;;;;;3.53;1.00;;;;;;;;;;5056477;28;20450;-84
2023/01/12 12:02:36;;;;;;;3.72;1.10;;;;;;;;;;5050948;28;20437;-86
2023/01/12 12:05:26;;;;;;;3.33;1.40;;;;;;;;;;5040969;28;20407;-86
2023/01/12 12:08:11;;;;;;;5.07;1.05;;;;;;;;;;5059951;28;20450;-85
2023/01/12 12:10:47;;;;;;;4.30;1.00;;;;;;;;;;5067549;28;20530;-85
2023/01/12 12:13:30;;;;;;;2.80;1.05;;;;;;;;;;5076453;28;20605;-85
2023/01/12 12:16:14;;;;;;;3.70;0.90;;;;;;;;;;5064106;28;20418;-85
2023/01/12 12:18:49;;;;;;;4.35;1.35;;;;;;;;;;5047639;28;20425;-84
2023/01/12 12:21:18;;;;;;;3.13;1.00;;;;;;;;;;5058445;28;20441;-86
2023/01/12 12:23:51;;;;;;;4.23;1.00;;;;;;;;;;5050103;28;20524;-84
2023/01/12 12:26:23;;;;;;;4.22;1.30;;;;;;;;;;5065297;28;20442;-86
2023/01/12 12:28:56;;;;;;;3.95;1.00;;;;;;;;;;5037645;28;20418;-83
2023/01/12 12:31:25;;;;;;;2.90;1.10;;;;;;;;;;5051275;28;20514;-84
2023/01/12 12:34:06;;;;;;;4.03;1.13;;;;;;;;;;5038011;28;20517;-84
2023/01/12 12:36:42;;;;;;;3.20;1.10;;;;;;;;;;5033604;28;20443;-83
2023/01/12 12:39:30;;;;;;;2.90;0.90;;;;;;;;;;5034706;28;20378;-83
2023/01/12 12:45:15;;;;;;;3.90;1.08;;;;;;;;;;5036571;28;21012;-84
2023/01/12 12:47:54;;;;;;;3.47;0.90;;;;;;;;;;5039944;28;20524;-84
2023/01/12 12:50:27;;;;;;;3.22;0.90;;;;;;;;;;5034212;28;20413;-84
2023/01/12 12:53:07;;;;;;;3.42;0.95;;;;;;;;;;5018940;28;20788;-84
2023/01/12 12:55:34;;;;;;;3.05;0.80;;;;;;;;;;5033127;28;20375;-84
2023/01/12 12:58:01;;;;;;;4.18;0.90;;;;;;;;;;5033292;28;20380;-84
2023/01/12 13:00:39;;;;;;;3.13;1.10;;;;;;;;;;5031046;28;20379;-84
2023/01/12 13:03:05;;;;;;;2.83;0.90;;;;;;;;;;5039533;28;20478;-84
2023/01/12 13:05:54;;;;;;;3.45;0.90;;;;;;;;;;5033927;28;20970;-84
2023/01/12 13:08:25;;;;;;;2.28;0.75;;;;;;;;;;5032727;28;20414;-84
2023/01/12 13:10:52;;;;;;;2.17;0.98;;;;;;;;;;5031707;28;20403;-84
2023/01/12 13:13:38;;;;;;;1.98;0.80;;;;;;;;;;5034309;28;20377;-84
2023/01/12 13:16:19;;;;;;;4.05;1.30;;;;;;;;;;5043290;28;20400;-85
2023/01/12 13:18:45;;;;;;;2.47;1.10;;;;;;;;;;5051799;28;20488;-84
2023/01/12 13:21:30;;;;;;;3.03;1.20;;;;;;;;;;5031288;28;20481;-83
2023/01/12 13:24:08;;;;;;;2.22;0.98;;;;;;;;;;5050180;28;20455;-84
2023/01/12 13:26:34;;;;;;;3.33;1.25;;;;;;;;;;5035714;28;20459;-83
2023/01/12 13:29:19;;;;;;;3.53;1.20;;;;;;;;;;5042610;28;20423;-84
2023/01/12 13:31:45;;;;;;;2.13;1.00;;;;;;;;;;5033001;28;20489;-83
2023/01/12 13:34:29;;;;;;;2.45;0.80;;;;;;;;;;5033348;28;20391;-84
2023/01/12 13:37:14;;;;;;;3.27;0.90;;;;;;;;;;5031969;28;20379;-83
2023/01/12 13:39:44;;;;;;;2.47;1.05;;;;;;;;;;5021076;28;20413;-83
2023/01/12 13:45:01;;;;;;;2.20;1.10;;;;;;;;;;5041352;28;20371;-84
2023/01/12 13:47:31;;;;;;;2.42;0.75;;;;;;;;;;5041786;28;20460;-83
2023/01/12 13:49:59;;;;;;;2.83;1.20;;;;;;;;;;5037656;28;20403;-84
2023/01/12 13:52:28;;;;;;;4.15;1.00;;;;;;;;;;5039349;28;20478;-84
2023/01/12 13:54:54;;;;;;;5.82;1.02;;;;;;;;;;5049307;28;20384;-84
2023/01/12 13:57:21;;;;;;;2.67;0.80;;;;;;;;;;5036303;28;20399;-84
2023/01/12 14:00:03;;;;;;;2.55;0.95;;;;;;;;;;5043298;28;20935;-84
2023/01/12 14:02:32;;;;;;;4.60;1.10;;;;;;;;;;5044559;28;20371;-84
2023/01/12 14:05:05;;;;;;;3.08;0.90;;;;;;;;;;5041005;28;20376;-84
2023/01/12 14:07:51;;;;;;;2.70;1.00;;;;;;;;;;5047109;28;20381;-84
2023/01/12 14:10:29;;;;;;;4.25;0.80;;;;;;;;;;5036648;28;20418;-83
2023/01/12 14:13:03;;;;;;;2.10;0.70;;;;;;;;;;5036509;28;20375;-83
2023/01/12 14:18:27;;;;;;;1.97;0.50;;;;;;;;;;5040966;28;20435;-83
2023/01/12 14:20:55;;;;;;;3.33;0.95;;;;;;;;;;5048232;28;20387;-84
2023/01/12 14:23:28;;;;;;;1.97;0.70;;;;;;;;;;5035164;28;20383;-83
2023/01/12 14:26:03;;;;;;;2.95;0.77;;;;;;;;;;5034799;28;20856;-84
2023/01/12 14:28:29;;;;;;;2.88;1.13;;;;;;;;;;5058934;28;20403;-84
2023/01/12 14:30:56;;;;;;;2.15;0.90;;;;;;;;;;5073523;28;20408;-84
2023/01/12 14:33:23;;;;;;;2.08;0.80;;;;;;;;;;5074094;28;20458;-84
2023/01/12 14:35:53;;;;;;;3.33;0.95;;;;;;;;;;5073808;28;20384;-84
2023/01/12 14:38:19;;;;;;;2.70;1.20;;;;;;;;;;5072848;28;20886;-84
2023/01/12 14:40:52;;;;;;;3.55;1.20;;;;;;;;;;5069042;28;20379;-83
2023/01/12 14:48:58;;;;;;;1.83;0.70;;;;;;;;;;5073905;28;20468;-85
2023/01/12 14:54:20;;;;;;;4.20;1.23;;;;;;;;;;5073742;28;20789;-84
2023/01/12 14:56:58;;;;;;;3.38;0.93;;;;;;;;;;5073477;28;20449;-84
2023/01/12 14:59:27;;;;;;;2.65;1.10;;;;;;;;;;5073106;28;20372;-84
2023/01/12 15:01:53;;;;;;;2.80;1.10;;;;;;;;;;5055978;28;20412;-84
2023/01/12 15:04:23;;;;;;;2.67;1.00;;;;;;;;;;5055410;28;20376;-84
2023/01/12 15:07:03;;;;;;;2.78;1.08;;;;;;;;;;5073324;28;20474;-83
2023/01/12 15:09:31;;;;;;;3.80;1.03;;;;;;;;;;5073140;28;20384;-84
2023/01/12 15:11:57;;;;;;;2.97;0.90;;;;;;;;;;5062761;28;20896;-84
2023/01/12 15:14:24;;;;;;;3.03;0.90;;;;;;;;;;5053862;28;20435;-83
2023/01/12 15:25:34;;;;;;;3.45;1.17;;;;;;;;;;4991585;28;20392;-83
2023/01/12 15:28:01;;;;;;;2.13;1.00;;;;;;;;;;4973202;28;20391;-84
2023/01/12 15:30:27;;;;;;;2.03;0.80;;;;;;;;;;5013953;28;20500;-83
2023/01/12 15:32:54;;;;;;;2.70;0.95;;;;;;;;;;5076292;28;20498;-83
2023/01/12 15:35:22;;;;;;;1.88;0.85;;;;;;;;;;5067222;28;20377;-84
2023/01/12 15:37:48;;;;;;;2.57;0.70;;;;;;;;;;5072729;28;20895;-84
2023/01/12 15:40:14;;;;;;;2.85;1.42;;;;;;;;;;5082882;28;20391;-85
2023/01/12 15:42:41;;;;;;;2.30;1.27;;;;;;;;;;5071134;28;20381;-84
2023/01/12 15:45:26;;;;;;;1.98;1.20;;;;;;;;;;5067589;28;20371;-83
2023/01/12 15:47:52;;;;;;;2.53;0.98;;;;;;;;;;5074753;28;20372;-84
2023/01/12 15:50:18;;;;;;;2.83;1.20;;;;;;;;;;5054724;28;20508;-84